Yale, Nebraska
Current Conditions -  °F | °C
As of 7:53 AM on Sunday 21 Dec 2014 (Local Time) from KBBW Reporting Station
Few Clouds Few Clouds  
Wind Chill: 27°   Ceiling: Unl
Heat Index: 27°   Visibility: 9mi
Dew Point: 24°   Wind: 0mph
Humidity: 89%   Direction: NA
Pressure: 29.73"   Gusts: NA
Location:  41.4381°N, 99.098°W
Report Text: KBBW 211353Z AUTO 00000KT 9SM FEW110 M03/M04 A2973 RMK AO2 SLP091 T10281044
Loading
Personal Weather Stations






























Interactive Weather Map New forecast layout! Learn more

10-Day Weather Forecast

Advertisements
Track Severe Weather on mobile